LJMB/MBX METAR and TAF weather

Enter ICAO airport designator
Station Type Date Time Source
LJMB METAR 2019/02/21 16:00 UTC NOAA

LJMB 211600Z 16005KT CAVOK 13/02 Q1024


Station Type Date Time Source
LJMB Decoded METAR 2019/02/21 16:00 UTC NOAA

Maribor / Slivnica, Slovenia (LJMB) 46-29N 015-41E 265M
Feb 21, 2019 - 11:00 AM EST / 2019.02.21 1600 UTC
Wind: from the SSE (160 degrees) at 6 MPH (5 KT):0
Visibility: greater than 7 mile(s):0
Temperature: 55 F (13 C)
Dew Point: 35 F (2 C)
Relative Humidity: 47%
Pressure (altimeter): 30.24 in. Hg (1024 hPa)
ob: LJMB 211600Z 16005KT CAVOK 13/02 Q1024
cycle: 16

Station Type Date Time Source
LJMB TAF 2019/02/21 15:04 UTC NOAA

TAF LJMB 211400Z 2115/2215 18008KT CAVOK
BECMG 2116/2118 VRB02KT
BECMG 2122/2124 34004KT
BECMG 2205/2208 34007KT SCT030 BKN055 PROB40
TEMPO 2206/2215 -RA BKN030
TEMPO 2210/2214 36012KT
BECMG 2214/2215 03012KT


Example: see airport list